Weather at Campo di Volo Chatelair

Public forecast

Using degrees Celsius for public forecast. Weather courtesy of forecast.io.

Closest aviation weather report (METAR) to Campo di Volo Chatelair

Report is more than 2 hours old.

Closest report is Aosta Airport, 4.7 nm (8.7 km) W. Retrieved 2020/09/24 17:50 UTC (2 hours ago):

LIMW 241750Z AUTO VRB02KT 9999 -RA BKN033 BKN064 OVC074 18/15 Q1007

Closest aviation forecast (TAF) to Campo di Volo Chatelair

Closest forecast is Turin Airport, 33.1 nm (61.4 km) SSE. Retrieved 2020/09/24 18:00 UTC (2 hours ago):

TAF LIMF 241700Z 2418/2518 VRB05KT 9999 SCT020 TEMPO 2418/2421 4000 TSRA TEMPO 2421/2424 SHRA TEMPO 2506/2509 SHRA BECMG 2505/2507 31010KT